Latest Weather Observations for Bombala AWS

IDN60801

Issued at 10:03 pm EST Thursday 28 July 2016 (issued every 30 minutes, with the page automatically refreshed every 10 minutes)

About weather observations | Map of weather stations | Latest weather observations for NSW | Other Formats
Station Details ID: 070328 Name: BOMBALA AWS Lat: -37.00 Lon: 149.23 Height: 760.5 m
Data from the previous 72 hours. | See also: Recent months at Bombala AWS
Date/Time
EST
Temp
°C
App
Temp
°C
Dew
Point
°C
Rel
Hum
%
Delta-T
°C
Wind Press
QNH
hPa
Press
MSL
hPa
Rain since
9am
mm
Dir  Spd
km/h
Gust
km/h
Spd
kts
Gust
kts
28/10:00pm 4.4 0.7 0.2 74 1.7 N 9 17 5 9 1021.0 1022.3 0.0
28/09:30pm 4.2 0.9 0.4 76 1.5 NNE 7 11 4 6 1021.1 1022.4 0.0
28/09:00pm 4.3 -0.1 0.3 75 1.6 N 13 17 7 9 1021.1 1022.4 0.0
28/08:30pm 4.6 0.6 0.4 74 1.7 N 11 15 6 8 1021.2 1022.5 0.0
28/08:00pm 4.4 -0.3 0.9 78 1.4 N 15 17 8 9 1021.1 1022.4 0.0
28/07:30pm 4.5 -0.6 1.0 78 1.4 NNW 17 20 9 11 1021.0 1022.3 0.0
28/07:00pm 4.2 -0.5 1.1 80 1.3 NNW 15 17 8 9 1020.8 1022.2 0.0
28/06:30pm 4.3 0.8 1.0 79 1.3 NNW 9 13 5 7 1020.5 1021.8 0.0
28/06:00pm 5.4 2.3 1.1 74 1.8 N 7 9 4 5 1020.3 1021.6 0.0
28/05:30pm 6.8 3.7 1.3 68 2.3 NNW 7 11 4 6 1020.1 1021.4 0.0
28/05:00pm 8.3 2.4 1.9 64 2.8 WNW 22 30 12 16 1019.7 1021.0 0.0
28/04:30pm 9.6 4.7 1.8 58 3.4 WNW 17 28 9 15 1019.6 1020.9 0.0
28/04:00pm 10.5 4.3 2.1 56 3.7 NW 24 32 13 17 1019.1 1020.4 0.0
28/03:30pm 11.0 4.8 2.1 54 4.0 WNW 24 32 13 17 1019.2 1020.5 0.0
28/03:00pm 10.9 5.0 1.7 53 4.1 NW 22 30 12 16 1019.2 1020.5 0.0
28/02:30pm 11.1 4.9 1.9 53 4.1 NW 24 33 13 18 1019.3 1020.6 0.0
28/02:00pm 11.3 5.1 2.1 53 4.1 WNW 24 32 13 17 1019.2 1020.5 0.0
28/01:30pm 10.9 4.6 1.4 52 4.2 WNW 24 32 13 17 1019.3 1020.6 0.0
28/01:00pm 11.1 5.0 2.9 57 3.7 WNW 24 35 13 19 1019.7 1021.0 0.0
28/12:30pm 10.5 3.8 1.3 53 4.0 WNW 26 33 14 18 1019.9 1021.2 0.0
28/12:00pm 9.9 3.3 2.0 58 3.5 WNW 26 33 14 18 1020.4 1021.7 0.0
28/11:30am 9.5 3.9 3.3 65 2.8 NW 22 35 12 19 1020.7 1022.1 0.0
28/11:00am 8.0 1.4 1.8 65 2.7 NW 26 33 14 18 1021.1 1022.4 0.0
28/10:30am 7.7 1.4 1.3 64 2.7 NW 24 33 13 18 1021.3 1022.6 0.0
28/10:00am 7.2 2.1 2.9 74 1.9 NW 19 28 10 15 1021.2 1022.5 0.0
28/09:30am 5.3 0.5 2.5 82 1.2 NW 17 22 9 12 1021.4 1022.7 0.0
28/09:00am 4.2 -0.3 2.2 87 0.8 NW 15 24 8 13 1021.4 1022.7 0.0
28/08:30am 2.8 -2.5 1.6 92 0.5 NW 19 26 10 14 1021.1 1022.4 0.0
28/08:00am 1.2 -3.8 1.1 99 0.0 NNW 17 19 9 10 1020.8 1022.2 0.0
28/07:30am 0.6 -4.5 0.5 99 0.0 NW 17 20 9 11 1020.6 1022.0 0.0
28/07:00am 0.4 -4.4 0.3 99 0.0 NNW 15 17 8 9 1020.5 1021.8 0.0
28/06:30am 0.3 -4.5 0.2 99 0.0 NNW 15 17 8 9 1020.3 1021.6 0.0
28/06:00am 0.6 -4.9 0.5 99 0.0 NNW 19 20 10 11 1019.9 1021.2 0.0
28/05:30am 0.6 -4.5 0.5 99 0.0 NW 17 20 9 11 1019.9 1021.2 0.0
28/05:00am 0.6 -4.2 0.5 99 0.0 NNW 15 17 8 9 1019.6 1020.9 0.0
28/04:30am 0.7 -3.3 0.6 99 0.0 NNW 11 15 6 8 1019.4 1020.7 0.0
28/04:00am -0.3 -4.1 -0.6 98 0.1 NNW 9 11 5 6 1019.3 1020.6 0.0
28/03:30am 0.9 -3.6 0.0 94 0.3 N 13 15 7 8 1019.2 1020.5 0.0
28/03:00am 3.4 0.4 0.8 83 1.0 W 6 7 3 4 1019.2 1020.5 0.0
28/02:30am 2.3 -1.3 0.4 87 0.7 NW 9 13 5 7 1019.1 1020.4 0.0
28/02:00am 1.8 -1.3 0.2 89 0.6 WNW 6 9 3 5 1019.0 1020.3 0.0
28/01:30am 2.9 -0.6 1.3 89 0.6 N 9 13 5 7 1018.8 1020.1 0.0
28/01:00am 2.4 -1.5 1.1 91 0.5 NNW 11 13 6 7 1018.5 1019.8 0.0
28/12:30am 2.5 -2.3 2.4 99 0.0 NNW 17 20 9 11 1018.2 1019.4 0.0
28/12:00am 2.1 -2.4 2.0 99 0.0 NNW 15 17 8 9 1018.2 1019.4 0.0
 
Date/Time
EST
Temp
°C
App
Temp
°C
Dew
Point
°C
Rel
Hum
%
Delta-T
°C
Wind Press
QNH
hPa
Press
MSL
hPa
Rain since
9am
mm
Dir  Spd
km/h
Gust
km/h
Spd
kts
Gust
kts
27/11:30pm 3.1 -0.5 3.0 99 0.0 NNW 11 13 6 7 1018.5 1019.8 0.0
27/11:00pm 2.8 -0.4 2.8 100 0.0 NNW 9 11 5 6 1018.7 1020.0 0.0
27/10:30pm 3.3 1.8 3.2 99 0.0 CALM 0 0 0 0 1018.5 1019.8 0.0
27/10:00pm 3.3 1.5 3.2 99 0.0 SW 2 6 1 3 1018.4 1019.6 0.0
27/09:30pm 3.8 0.0 3.7 99 0.0 WSW 13 19 7 10 1018.2 1019.4 0.0
27/09:00pm 3.7 -0.5 3.6 99 0.0 SW 15 22 8 12 1017.8 1019.1 0.0
27/08:30pm 4.1 0.3 4.0 99 0.0 WSW 13 17 7 9 1017.3 1018.6 0.0
27/08:00pm 4.5 0.0 4.4 99 0.0 SW 17 20 9 11 1016.9 1018.1 0.0
27/07:30pm 5.0 0.6 4.9 99 0.0 WSW 17 24 9 13 1016.2 1017.5 0.0
27/07:00pm 6.0 2.5 5.4 96 0.3 WSW 13 20 7 11 1016.1 1017.3 0.0
27/06:30pm 6.0 1.7 5.4 96 0.3 WSW 17 22 9 12 1015.4 1016.6 0.0
27/06:00pm 5.8 1.5 5.1 95 0.3 WSW 17 20 9 11 1014.6 1015.8 0.0
27/05:30pm 5.5 1.4 4.5 93 0.4 WSW 15 20 8 11 1013.7 1014.9 0.0
27/05:00pm 6.1 1.0 4.1 87 0.9 WSW 20 26 11 14 1013.2 1014.4 0.0
27/04:30pm 7.6 2.7 4.2 79 1.5 WSW 19 26 10 14 1013.0 1014.2 0.0
27/04:00pm 7.9 2.0 3.9 76 1.8 SW 24 32 13 17 1012.7 1013.8 0.0
27/03:30pm 8.5 2.6 4.1 74 2.0 SW 24 32 13 17 1012.2 1013.4 0.0
27/03:00pm 8.4 1.8 4.2 75 1.9 SW 28 35 15 19 1011.6 1012.7 0.0
27/02:36pm 10.3 3.4 2.4 58 3.5 W 28 50 15 27 1010.8 1012.0 0.0
27/02:30pm 10.0 4.0 3.3 63 3.0 WSW 24 30 13 16 1011.0 1012.2 0.0
27/02:00pm 9.7 2.9 3.2 64 2.9 WSW 28 35 15 19 1010.8 1012.0 0.0
27/01:30pm 9.3 3.2 2.6 63 3.0 WSW 24 32 13 17 1010.6 1011.8 0.0
27/01:00pm 10.6 3.5 3.4 61 3.3 WSW 30 41 16 22 1010.4 1011.5 0.0
27/12:30pm 10.0 2.1 2.4 59 3.4 WSW 33 48 18 26 1010.1 1011.2 0.0
27/12:00pm 9.8 1.6 2.6 61 3.2 W 35 48 19 26 1010.2 1011.3 0.0
27/11:30am 9.3 -0.1 2.2 61 3.1 WSW 41 54 22 29 1009.8 1010.9 0.0
27/11:00am 8.9 -1.0 1.8 61 3.1 WSW 43 56 23 30 1009.2 1010.3 0.0
27/10:30am 8.4 0.4 1.8 63 2.9 W 33 48 18 26 1009.3 1010.4 0.0
27/10:00am 7.5 0.0 1.1 64 2.7 W 30 41 16 22 1009.1 1010.2 0.0
27/09:30am 7.3 2.8 2.4 71 2.1 WNW 15 20 8 11 1008.8 1009.9 0.0
27/09:00am 6.4 1.5 1.9 73 1.9 WNW 17 20 9 11 1008.4 1009.5 0.0
27/08:30am 5.6 0.6 1.3 74 1.8 WNW 17 24 9 13 1007.6 1008.7 0.0
27/08:00am 2.3 -2.4 1.0 91 0.5 WNW 15 17 8 9 1007.4 1008.5 0.0
27/07:30am 0.3 -4.6 -0.4 95 0.3 NNW 15 15 8 8 1007.0 1008.0 0.0
27/07:00am 2.5 -1.9 0.6 87 0.8 NW 13 17 7 9 1006.6 1007.7 0.0
27/06:30am 1.5 -4.1 0.2 91 0.5 NW 19 22 10 12 1006.0 1007.0 0.0
27/06:00am 1.6 -3.7 -0.6 85 0.8 NW 17 22 9 12 1005.2 1006.3 0.0
27/05:30am 1.1 -4.7 -0.4 90 0.6 NW 20 24 11 13 1005.2 1006.3 0.0
27/05:00am 0.4 -4.2 -1.0 90 0.5 NW 13 17 7 9 1005.2 1006.3 0.0
27/04:30am 0.7 -2.9 -1.8 83 1.0 WNW 7 11 4 6 1005.2 1006.3 0.0
27/04:00am 0.5 -4.6 -1.9 84 0.9 NNW 15 19 8 10 1005.1 1006.2 0.0
27/03:30am 0.9 -2.7 -2.3 79 1.2 NW 7 7 4 4 1005.8 1006.8 0.0
27/03:00am 0.6 -3.4 -1.9 83 0.9 NNW 9 13 5 7 1006.1 1007.1 0.0
27/02:30am 0.8 -3.9 -1.8 83 1.0 NNW 13 17 7 9 1006.2 1007.3 0.0
27/02:00am 1.1 -4.7 -1.5 83 1.0 NNW 19 20 10 11 1006.2 1007.3 0.0
27/01:30am 1.1 -4.9 -1.8 81 1.1 NNW 20 26 11 14 1006.5 1007.6 0.0
27/01:00am 1.6 -2.8 -2.3 75 1.4 WNW 11 15 6 8 1007.0 1008.0 0.0
27/12:30am 1.3 -2.3 -2.1 78 1.2 WNW 7 13 4 7 1007.7 1008.8 0.0
27/12:00am 0.3 -5.2 -2.1 84 0.9 NNW 17 20 9 11 1007.4 1008.5 0.0
 
Date/Time
EST
Temp
°C
App
Temp
°C
Dew
Point
°C
Rel
Hum
%
Delta-T
°C
Wind Press
QNH
hPa
Press
MSL
hPa
Rain since
9am
mm
Dir  Spd
km/h
Gust
km/h
Spd
kts
Gust
kts
26/11:30pm 1.8 -5.4 -2.0 76 1.4 NW 26 32 14 17 1007.5 1008.6 0.0
26/11:00pm 0.8 -5.2 -1.6 84 0.9 NW 20 26 11 14 1007.7 1008.8 0.0
26/10:30pm 0.6 -6.2 -1.8 84 0.9 NNW 24 26 13 14 1008.1 1009.2 0.0
26/10:00pm 1.2 -5.2 -1.9 80 1.1 NW 22 26 12 14 1008.4 1009.5 0.0
26/09:30pm 0.4 -4.6 -1.5 87 0.7 NNW 15 19 8 10 1008.5 1009.6 0.0
26/09:00pm 1.0 -4.4 -1.7 82 1.0 NW 17 20 9 11 1009.0 1010.1 0.0
26/08:30pm 1.3 -4.5 -1.6 81 1.1 NW 19 24 10 13 1009.3 1010.4 0.0
26/08:00pm 1.0 -3.6 -1.4 84 0.9 NNW 13 17 7 9 1009.8 1010.9 0.0
26/07:30pm 1.7 -2.3 -2.2 75 1.4 NNW 9 13 5 7 1010.2 1011.3 0.0
26/07:00pm 2.4 -1.3 -2.7 69 1.9 NNW 7 11 4 6 1010.0 1011.1 0.0
26/06:30pm 3.9 -1.6 -1.9 66 2.2 WSW 17 20 9 11 1009.6 1010.8 0.0
26/06:00pm 4.6 -2.6 -2.0 62 2.5 W 26 33 14 18 1009.5 1010.7 0.0
26/05:30pm 5.3 -1.5 -1.8 60 2.7 WSW 24 32 13 17 1009.5 1010.7 0.0
26/05:00pm 6.3 0.3 -1.6 57 3.1 W 20 26 11 14 1009.3 1010.4 0.0
26/04:30pm 7.9 2.0 -2.4 48 4.0 WNW 19 24 10 13 1009.0 1010.1 0.0
26/04:00pm 8.3 4.1 -1.2 51 3.8 SW 11 17 6 9 1009.1 1010.2 0.0
26/03:30pm 8.1 2.7 -1.4 51 3.8 WSW 17 26 9 14 1009.1 1010.2 0.0
26/03:00pm 7.5 2.2 -0.9 55 3.4 W 17 22 9 12 1009.1 1010.2 0.0
26/02:30pm 8.8 2.8 -1.3 49 4.1 WNW 20 26 11 14 1009.1 1010.2 0.0
26/02:00pm 9.1 2.8 -1.3 48 4.2 WNW 22 35 12 19 1009.1 1010.2 0.0
26/01:30pm 8.4 0.5 -1.4 50 3.9 WNW 30 41 16 22 1009.1 1010.2 0.0
26/01:25pm 8.4 -0.8 -1.7 49 4.0 WNW 37 57 20 31 1009.1 1010.2 0.0
26/01:00pm 8.4 -0.8 -1.7 49 4.0 WNW 37 44 20 24 1008.9 1010.0 0.0
26/12:30pm 7.7 -1.5 -1.3 53 3.6 WNW 37 48 20 26 1009.1 1010.2 0.0
26/12:00pm 7.4 -1.1 -1.8 52 3.6 WNW 33 50 18 27 1009.6 1010.8 0.0
26/11:30am 7.0 -4.0 -2.2 52 3.6 WNW 46 61 25 33 1009.6 1010.8 0.0
26/11:10am 6.6 -4.1 -2.5 52 3.5 WNW 44 65 24 35 1010.0 1011.1 0.0
26/11:00am 6.7 -3.0 -2.4 52 3.5 WNW 39 52 21 28 1010.3 1011.4 0.0
26/10:30am 6.1 -4.5 -2.0 56 3.1 WNW 44 61 24 33 1010.7 1011.9 0.0
26/10:03am 6.0 -4.1 -2.3 55 3.2 WNW 41 59 22 32 1010.5 1011.6 0.0
26/10:00am 5.9 -4.7 -2.2 56 3.1 WNW 44 61 24 33 1010.4 1011.5 0.0
26/09:41am 5.7 -6.1 -2.6 55 3.1 WNW 50 70 27 38 1009.8 1010.9 0.0
26/09:30am 5.7 -6.5 -2.4 56 3.1 WNW 52 67 28 36 1010.0 1011.1 0.0
26/09:05am 5.3 -5.4 -2.5 57 2.9 WNW 44 63 24 34 1010.3 1011.4 0.0
26/09:00am 5.1 -4.7 -2.7 57 2.9 WNW 39 56 21 30 1010.4 1011.5 0.0
26/08:49am 5.0 -4.0 -2.8 57 2.9 WNW 35 54 19 29 1010.6 1011.8 0.0
26/08:30am 4.6 -4.4 -2.7 59 2.7 WNW 35 50 19 27 1010.8 1012.0 0.0
26/08:12am 4.2 -3.8 -2.6 61 2.5 NW 30 50 16 27 1010.6 1011.8 0.0
26/08:00am 3.7 -3.5 -2.0 66 2.1 NW 26 35 14 19 1010.7 1011.9 0.0
26/07:30am 3.2 -3.2 -1.9 69 1.9 WNW 22 32 12 17 1010.3 1011.4 0.0
26/07:00am 3.0 -3.4 -1.5 72 1.7 NW 22 28 12 15 1009.4 1010.5 0.0
26/06:30am 3.0 -3.7 -1.0 75 1.5 WNW 24 33 13 18 1008.9 1010.0 0.0
26/06:00am 3.5 -4.3 -0.9 73 1.7 WNW 30 41 16 22 1008.4 1009.5 0.0
26/05:56am 3.6 -4.8 -0.8 73 1.7 WNW 33 54 18 29 1008.4 1009.5 0.0
26/05:30am 3.9 -4.9 -0.9 71 1.9 WNW 35 52 19 28 1007.9 1009.0 0.0
26/05:19am 4.0 -5.2 -1.6 67 2.1 WNW 37 56 20 30 1007.6 1008.7 0.0
26/05:00am 4.1 -4.1 -1.3 68 2.1 WNW 32 43 17 23 1007.5 1008.6 0.0
26/04:30am 4.8 -4.0 -1.0 66 2.3 NW 35 54 19 29 1007.0 1008.0 0.0
26/04:24am 4.9 -2.9 -1.1 65 2.3 NW 30 54 16 29 1006.6 1007.7 0.0
26/04:00am 4.9 -2.9 -0.9 66 2.3 WNW 30 41 16 22 1006.8 1007.9 0.0
26/03:43am 5.4 -4.0 -0.2 67 2.2 WNW 39 57 21 31 1006.5 1007.6 0.0
26/03:30am 5.0 -5.0 1.1 76 1.6 W 43 56 23 30 1006.2 1007.3 0.0
26/03:20am 5.4 -1.6 2.2 80 1.4 W 28 61 15 33 1006.3 1007.4 0.0
26/03:00am 5.8 -0.5 1.7 75 1.7 WNW 24 32 13 17 1006.4 1007.5 0.0
26/02:34am 6.0 -5.2 1.7 74 1.8 WNW 50 69 27 37 1005.7 1006.7 0.0
26/02:30am 6.6 -4.6 1.7 71 2.1 WNW 50 69 27 37 1005.2 1006.3 0.0
26/02:08am 6.9 -0.2 1.2 67 2.4 WNW 28 50 15 27 1005.1 1006.2 0.0
26/02:00am 6.1 0.1 1.2 71 2.1 WNW 22 32 12 17 1005.3 1006.4 0.0
26/01:30am 5.1 0.0 0.9 74 1.7 NW 17 22 9 12 1004.9 1005.9 0.0
26/01:00am 5.3 -0.8 0.7 72 1.9 NW 22 26 12 14 1004.5 1005.5 0.0
26/12:30am 5.8 -2.7 1.0 71 2.0 NW 35 43 19 23 1003.8 1004.8 0.0
26/12:00am 5.5 -2.5 0.7 71 2.0 NW 32 43 17 23 1004.3 1005.3 0.0
 
Date/Time
EST
Temp
°C
App
Temp
°C
Dew
Point
°C
Rel
Hum
%
Delta-T
°C
Wind Press
QNH
hPa
Press
MSL
hPa
Rain since
9am
mm
Dir  Spd
km/h
Gust
km/h
Spd
kts
Gust
kts
25/11:30pm 5.4 -2.8 0.4 70 2.0 NW 33 41 18 22 1004.4 1005.4 0.0
25/11:00pm 5.9 -2.7 0.3 67 2.3 NW 35 44 19 24 1004.4 1005.4 0.0
25/10:46pm 6.3 -1.7 0.2 65 2.5 NW 32 50 17 27 1004.7 1005.7 0.0
25/10:30pm 5.7 -1.2 -0.1 66 2.3 NW 26 33 14 18 1004.9 1005.9 0.0

Other Formats:

Comma delimited format used in spreadsheet applications
http://www.bom.gov.au/fwo/IDN60801/IDN60801.94929.axf

JavaScript Object Notation format (JSON) in row-major order
http://www.bom.gov.au/fwo/IDN60801/IDN60801.94929.json